Terminal Aerodrome Forecast
Issued by NWS

Home | Current Version | Previous Version | Text Only | Print | Product List | Glossary On
Versions: 1 2 3 4 5 6 7 8 9 10 11 12 13
000
FTUS43 KOAX 240500
TAFSNY
TAF
KSNY 240520Z 2406/2506 32012KT P6SM BKN100
     FM241500 30018G30KT P6SM SKC
     FM241900 30016G26KT P6SM SCT250
     FM250200 25012KT P6SM BKN150=

USA.gov is the U.S. government's official web portal to all federal, state and local government web resources and services.